createdAt,value
2018-12-16T00:00:41.098Z,33.60
2018-12-16T00:01:41.062Z,34.30
2018-12-16T00:02:41.023Z,35.50
2018-12-16T00:03:40.986Z,35.10
2018-12-16T00:04:43.741Z,34.60
2018-12-16T00:05:40.911Z,34.70
2018-12-16T00:06:40.873Z,33.20
2018-12-16T00:07:40.839Z,36.20
2018-12-16T00:08:40.799Z,33.60
2018-12-16T00:09:40.762Z,33.50
2018-12-16T00:10:40.724Z,34.00
2018-12-16T00:11:40.688Z,33.90
2018-12-16T00:12:40.650Z,33.40
2018-12-16T00:13:40.614Z,33.80
2018-12-16T00:14:40.575Z,35.10
2018-12-16T00:15:40.539Z,35.40
2018-12-16T00:16:40.500Z,35.30
2018-12-16T00:17:40.463Z,35.60
2018-12-16T00:18:40.426Z,35.10
2018-12-16T00:19:40.389Z,36.50
2018-12-16T00:20:40.351Z,36.40
2018-12-16T00:21:40.317Z,34.80
2018-12-16T00:22:40.276Z,34.60
2018-12-16T00:23:40.240Z,34.70
2018-12-16T00:24:40.203Z,35.10
2018-12-16T00:25:40.165Z,36.00
2018-12-16T00:26:40.128Z,35.80
2018-12-16T00:27:40.092Z,33.90
2018-12-16T00:28:40.054Z,36.90
2018-12-16T00:29:40.017Z,36.10
2018-12-16T00:30:39.980Z,36.80
2018-12-16T00:31:39.946Z,33.90
2018-12-16T00:32:39.906Z,36.30
2018-12-16T00:33:39.869Z,34.30
2018-12-16T00:34:39.831Z,36.10
2018-12-16T00:35:39.794Z,34.70
2018-12-16T00:36:39.758Z,34.80
2018-12-16T00:37:39.721Z,34.30
2018-12-16T00:38:39.681Z,35.30
2018-12-16T00:39:39.646Z,36.20
2018-12-16T00:40:39.608Z,35.80
2018-12-16T00:41:39.572Z,34.80
2018-12-16T00:42:39.535Z,33.10
2018-12-16T00:43:39.497Z,36.30
2018-12-16T00:44:39.462Z,35.10
2018-12-16T00:45:39.426Z,36.70
2018-12-16T00:46:39.385Z,34.90
2018-12-16T00:47:39.348Z,35.40
2018-12-16T00:48:39.313Z,36.10
2018-12-16T00:49:39.274Z,36.00
2018-12-16T00:50:39.236Z,34.80
2018-12-16T00:51:39.199Z,35.00
2018-12-16T00:52:39.164Z,35.70
2018-12-16T00:53:39.127Z,35.70
2018-12-16T00:54:39.088Z,34.70
2018-12-16T00:55:39.051Z,35.10
2018-12-16T00:56:39.014Z,35.20
2018-12-16T00:57:38.977Z,33.90
2018-12-16T00:58:38.945Z,36.00
2018-12-16T00:59:38.904Z,35.40
2018-12-16T01:00:38.866Z,35.30
2018-12-16T01:01:38.830Z,34.00
2018-12-16T01:02:38.793Z,36.30
2018-12-16T01:03:40.331Z,36.50
2018-12-16T01:04:38.718Z,34.40
2018-12-16T01:05:38.682Z,34.50
2018-12-16T01:06:38.649Z,35.60
2018-12-16T01:07:38.607Z,35.80
2018-12-16T01:08:38.571Z,35.00
2018-12-16T01:09:38.533Z,36.20
2018-12-16T01:10:38.496Z,36.60
2018-12-16T01:11:38.459Z,35.60
2018-12-16T01:12:38.422Z,34.80
2018-12-16T01:13:38.390Z,35.00
2018-12-16T01:14:38.349Z,33.40
2018-12-16T01:15:38.310Z,34.90
2018-12-16T01:16:38.274Z,34.30
2018-12-16T01:17:38.238Z,35.30
2018-12-16T01:18:38.201Z,36.60
2018-12-16T01:19:38.164Z,34.60
2018-12-16T01:20:38.127Z,36.50
2018-12-16T01:21:38.088Z,33.90
2018-12-16T01:22:43.441Z,36.30
2018-12-16T01:23:38.015Z,36.20
2018-12-16T01:24:37.978Z,35.40
2018-12-16T01:25:37.941Z,34.80
2018-12-16T01:26:37.969Z,35.00
2018-12-16T01:27:37.866Z,36.00
2018-12-16T01:28:37.829Z,36.30
2018-12-16T01:29:37.794Z,34.90
2018-12-16T01:30:37.757Z,34.80
2018-12-16T01:31:37.718Z,34.40
2018-12-16T01:32:37.686Z,35.50
2018-12-16T01:33:37.646Z,35.60
2018-12-16T01:34:37.611Z,35.30
2018-12-16T01:35:37.571Z,34.60
2018-12-16T01:36:37.533Z,34.90
2018-12-16T01:37:37.499Z,33.70
2018-12-16T01:38:37.461Z,34.90
2018-12-16T01:39:37.422Z,36.00
2018-12-16T01:40:37.535Z,36.80
2018-12-16T01:41:37.349Z,34.20
2018-12-16T01:42:37.312Z,34.70
2018-12-16T01:43:37.275Z,33.50
2018-12-16T01:44:37.238Z,34.50
2018-12-16T01:45:37.272Z,36.30
2018-12-16T01:46:37.165Z,36.70
2018-12-16T01:47:37.127Z,36.30
2018-12-16T01:48:37.089Z,35.20
2018-12-16T01:49:37.053Z,35.00
2018-12-16T01:50:37.073Z,37.00
2018-12-16T01:51:36.978Z,34.50
2018-12-16T01:52:36.947Z,33.40
2018-12-16T01:53:36.912Z,35.90
2018-12-16T01:54:36.868Z,37.40
2018-12-16T01:55:36.830Z,37.70
2018-12-16T01:56:36.797Z,33.30
2018-12-16T01:57:36.758Z,36.10
2018-12-16T01:58:36.719Z,37.50
2018-12-16T01:59:36.683Z,35.30
2018-12-16T02:00:36.646Z,36.60
2018-12-16T02:01:36.615Z,33.30
2018-12-16T02:02:36.572Z,33.30
2018-12-16T02:03:36.535Z,36.10
2018-12-16T02:04:36.497Z,34.90
2018-12-16T02:05:36.462Z,37.10
2018-12-16T02:06:36.424Z,37.30
2018-12-16T02:07:36.388Z,35.00
2018-12-16T02:08:36.352Z,34.00
2018-12-16T02:09:36.316Z,35.30
2018-12-16T02:10:36.277Z,36.60
2018-12-16T02:11:36.239Z,34.70
2018-12-16T02:12:36.204Z,34.90
2018-12-16T02:13:36.166Z,36.10
2018-12-16T02:14:36.129Z,34.80
2018-12-16T02:15:36.094Z,37.50
2018-12-16T02:16:36.056Z,33.80
2018-12-16T02:17:36.022Z,36.00
2018-12-16T02:18:35.983Z,37.30
2018-12-16T02:19:35.946Z,34.70
2018-12-16T02:20:35.909Z,35.70
2018-12-16T02:21:35.872Z,34.80
2018-12-16T02:22:35.836Z,36.00
2018-12-16T02:23:35.798Z,37.40
2018-12-16T02:24:35.762Z,36.00
2018-12-16T02:25:35.725Z,37.90
2018-12-16T02:26:35.685Z,36.40
2018-12-16T02:27:35.650Z,35.50
2018-12-16T02:28:35.614Z,37.30
2018-12-16T02:29:35.576Z,35.50
2018-12-16T02:30:35.541Z,36.40
2018-12-16T02:31:35.504Z,38.80
2018-12-16T02:32:35.467Z,36.60
2018-12-16T02:33:35.432Z,36.80
2018-12-16T02:34:35.392Z,33.60
2018-12-16T02:35:35.357Z,36.60
2018-12-16T02:36:35.319Z,38.10
2018-12-16T02:37:35.282Z,37.00
2018-12-16T02:38:35.245Z,38.10
2018-12-16T02:39:35.207Z,37.00
2018-12-16T02:40:35.181Z,36.40
2018-12-16T02:41:35.135Z,37.90
2018-12-16T02:42:35.097Z,36.60
2018-12-16T02:43:35.060Z,35.40
2018-12-16T02:44:35.025Z,36.50
2018-12-16T02:45:34.987Z,36.40
2018-12-16T02:46:35.052Z,36.90
2018-12-16T02:47:34.921Z,35.30
2018-12-16T02:48:34.879Z,35.10
2018-12-16T02:49:34.842Z,36.00
2018-12-16T02:50:34.803Z,36.30
2018-12-16T02:51:34.767Z,36.70
2018-12-16T02:52:34.729Z,37.70
2018-12-16T02:53:34.693Z,38.20
2018-12-16T02:54:34.656Z,37.70
2018-12-16T02:55:34.620Z,35.80
2018-12-16T02:56:34.582Z,37.10
2018-12-16T02:57:34.545Z,37.90
2018-12-16T02:58:34.507Z,37.40
2018-12-16T02:59:34.473Z,35.20
2018-12-16T03:00:34.435Z,36.90
2018-12-16T03:01:34.399Z,37.90
2018-12-16T03:02:34.360Z,38.80
2018-12-16T03:03:34.329Z,37.60
2018-12-16T03:04:34.287Z,39.00
2018-12-16T03:05:34.252Z,38.20
2018-12-16T03:06:34.214Z,38.10
2018-12-16T03:07:34.176Z,37.90
2018-12-16T03:08:34.141Z,37.30
2018-12-16T03:09:34.105Z,38.70
2018-12-16T03:10:34.072Z,37.60
2018-12-16T03:11:34.030Z,39.00
2018-12-16T03:12:33.994Z,37.60
2018-12-16T03:13:33.956Z,38.10
2018-12-16T03:14:33.919Z,38.80
2018-12-16T03:15:33.883Z,39.40
2018-12-16T03:16:33.846Z,38.90
2018-12-16T03:17:33.811Z,39.00
2018-12-16T03:18:33.779Z,37.40
2018-12-16T03:19:33.734Z,37.80
2018-12-16T03:20:33.697Z,37.00
2018-12-16T03:21:33.665Z,36.00
2018-12-16T03:22:33.624Z,37.50
2018-12-16T03:23:33.590Z,37.70
2018-12-16T03:24:33.553Z,39.30
2018-12-16T03:25:33.515Z,36.30
2018-12-16T03:26:35.999Z,38.80
2018-12-16T03:27:33.441Z,39.70
2018-12-16T03:28:33.403Z,36.70
2018-12-16T03:29:33.367Z,39.50
2018-12-16T03:30:33.335Z,37.60
2018-12-16T03:31:33.304Z,38.70
2018-12-16T03:32:33.258Z,38.40
2018-12-16T03:33:33.220Z,37.20
2018-12-16T03:34:33.182Z,38.30
2018-12-16T03:35:33.148Z,40.30
2018-12-16T03:36:33.110Z,37.50
2018-12-16T03:37:33.072Z,38.90
2018-12-16T03:38:33.036Z,38.60
2018-12-16T03:39:32.999Z,38.10
2018-12-16T03:40:32.961Z,41.20
2018-12-16T03:41:32.925Z,37.50
2018-12-16T03:42:34.431Z,39.50
2018-12-16T03:43:32.851Z,38.00
2018-12-16T03:44:32.816Z,36.20
2018-12-16T03:45:32.777Z,40.20
2018-12-16T03:46:32.740Z,39.00
2018-12-16T03:47:32.703Z,37.70
2018-12-16T03:48:32.669Z,37.50
2018-12-16T03:49:32.630Z,39.10
2018-12-16T03:50:32.592Z,40.30
2018-12-16T03:51:32.557Z,40.30
2018-12-16T03:52:32.519Z,39.30
2018-12-16T03:53:32.483Z,39.60
2018-12-16T03:54:32.446Z,39.10
2018-12-16T03:55:32.410Z,38.70
2018-12-16T03:56:32.375Z,36.70
2018-12-16T03:57:32.336Z,38.70
2018-12-16T03:58:32.302Z,39.10
2018-12-16T03:59:32.263Z,41.00
2018-12-16T04:00:32.228Z,41.30
2018-12-16T04:01:32.191Z,39.10
2018-12-16T04:02:32.153Z,38.20
2018-12-16T04:03:32.115Z,38.90
2018-12-16T04:04:32.082Z,36.30
2018-12-16T04:05:32.042Z,37.60
2018-12-16T04:06:32.006Z,38.60
2018-12-16T04:07:31.970Z,38.60
2018-12-16T04:08:31.933Z,40.10
2018-12-16T04:09:31.896Z,38.00
2018-12-16T04:10:31.858Z,40.50
2018-12-16T04:11:31.822Z,38.60
2018-12-16T04:12:31.786Z,38.80
2018-12-16T04:13:31.751Z,37.10
2018-12-16T04:14:31.712Z,38.60
2018-12-16T04:15:31.676Z,37.60
2018-12-16T04:16:31.640Z,39.40
2018-12-16T04:17:31.603Z,37.90
2018-12-16T04:18:31.566Z,39.80
2018-12-16T04:19:31.528Z,39.60
2018-12-16T04:20:31.491Z,36.70
2018-12-16T04:21:31.456Z,39.20
2018-12-16T04:22:31.421Z,36.90
2018-12-16T04:23:31.382Z,40.10
2018-12-16T04:24:31.345Z,41.20
2018-12-16T04:25:31.309Z,38.70
2018-12-16T04:26:31.271Z,41.30
2018-12-16T04:27:31.234Z,39.30
2018-12-16T04:28:31.201Z,41.00
2018-12-16T04:29:31.161Z,36.20
2018-12-16T04:30:31.123Z,37.20
2018-12-16T04:31:31.086Z,36.30
2018-12-16T04:32:31.051Z,38.90
2018-12-16T04:33:31.016Z,38.90
2018-12-16T04:34:30.978Z,39.60
2018-12-16T04:35:30.942Z,40.10
2018-12-16T04:36:30.904Z,39.30
2018-12-16T04:37:30.867Z,38.90
2018-12-16T04:38:30.831Z,38.60
2018-12-16T04:39:30.793Z,38.20
2018-12-16T04:40:30.759Z,38.50
2018-12-16T04:41:30.721Z,40.10
2018-12-16T04:42:30.686Z,39.40
2018-12-16T04:43:30.647Z,39.40
2018-12-16T04:44:30.610Z,38.40
2018-12-16T04:45:30.575Z,38.30
2018-12-16T04:46:30.535Z,39.40
2018-12-16T04:47:30.503Z,38.80
2018-12-16T04:48:30.464Z,38.80
2018-12-16T04:49:30.428Z,40.40
2018-12-16T04:50:30.394Z,37.40
2018-12-16T04:51:30.355Z,36.00
2018-12-16T04:52:30.318Z,39.60
2018-12-16T04:53:35.929Z,38.00
2018-12-16T04:54:30.245Z,36.80
2018-12-16T04:55:30.206Z,38.00
2018-12-16T04:56:30.181Z,38.90
2018-12-16T04:57:30.133Z,38.70
2018-12-16T04:58:30.097Z,39.70
2018-12-16T04:59:30.059Z,38.00
2018-12-16T05:00:30.022Z,38.20
2018-12-16T05:01:29.987Z,38.30
2018-12-16T05:02:29.949Z,38.40
2018-12-16T05:03:29.912Z,37.80
2018-12-16T05:04:29.875Z,40.50
2018-12-16T05:05:29.840Z,38.00
2018-12-16T05:06:29.802Z,37.70
2018-12-16T05:07:29.766Z,35.90
2018-12-16T05:08:29.730Z,37.30
2018-12-16T05:09:29.693Z,39.30
2018-12-16T05:10:29.660Z,39.60
2018-12-16T05:11:29.618Z,37.60
2018-12-16T05:12:29.583Z,37.20
2018-12-16T05:13:29.546Z,38.50
2018-12-16T05:14:29.510Z,37.90
2018-12-16T05:15:29.472Z,38.60
2018-12-16T05:16:29.435Z,36.20
2018-12-16T05:17:29.401Z,34.90
2018-12-16T05:18:29.361Z,37.10
2018-12-16T05:19:29.324Z,37.80
2018-12-16T05:20:29.288Z,37.80
2018-12-16T05:21:29.255Z,37.50
2018-12-16T05:22:29.214Z,40.10
2018-12-16T05:23:29.178Z,38.30
2018-12-16T05:24:29.141Z,37.00
2018-12-16T05:25:29.103Z,37.30
2018-12-16T05:26:29.108Z,37.40
2018-12-16T05:27:29.031Z,38.30
2018-12-16T05:28:28.994Z,37.50
2018-12-16T05:29:28.956Z,37.90
2018-12-16T05:30:28.919Z,36.50
2018-12-16T05:31:28.882Z,34.60
2018-12-16T05:32:28.845Z,36.50
2018-12-16T05:33:28.811Z,37.30
2018-12-16T05:34:28.775Z,34.70
2018-12-16T05:35:28.737Z,36.00
2018-12-16T05:36:28.699Z,38.90
2018-12-16T05:37:28.662Z,38.30
2018-12-16T05:38:28.625Z,38.40
2018-12-16T05:39:28.589Z,38.70
2018-12-16T05:40:28.555Z,36.30
2018-12-16T05:41:28.515Z,35.40
2018-12-16T05:42:28.478Z,35.10
2018-12-16T05:43:28.441Z,38.30
2018-12-16T05:44:28.404Z,35.30
2018-12-16T05:45:28.368Z,37.00
2018-12-16T05:46:28.330Z,37.30
2018-12-16T05:47:28.293Z,37.40
2018-12-16T05:48:28.256Z,37.40
2018-12-16T05:49:28.220Z,37.60
2018-12-16T05:50:28.182Z,37.40
2018-12-16T05:51:28.147Z,37.20
2018-12-16T05:52:28.113Z,34.80
2018-12-16T05:53:28.074Z,37.00
2018-12-16T05:54:28.036Z,35.00
2018-12-16T05:55:28.010Z,36.00
2018-12-16T05:56:27.965Z,35.10
2018-12-16T05:57:27.925Z,34.60
2018-12-16T05:58:27.889Z,33.50
2018-12-16T05:59:27.852Z,31.50
2018-12-16T06:00:27.815Z,35.10
2018-12-16T06:01:27.779Z,35.30
2018-12-16T06:02:27.741Z,35.30
2018-12-16T06:03:27.706Z,35.30
2018-12-16T06:04:27.673Z,31.10
2018-12-16T06:05:27.632Z,33.80
2018-12-16T06:06:27.597Z,33.80
2018-12-16T06:07:27.557Z,28.70
2018-12-16T06:08:27.520Z,33.00
2018-12-16T06:09:27.483Z,30.40
2018-12-16T06:10:27.446Z,33.20
2018-12-16T06:11:27.410Z,30.60
2018-12-16T06:12:27.374Z,32.80
2018-12-16T06:13:27.336Z,30.00
2018-12-16T06:14:27.300Z,30.10
2018-12-16T06:15:27.264Z,29.40
2018-12-16T06:16:27.227Z,27.70
2018-12-16T06:17:27.189Z,30.60
2018-12-16T06:18:27.152Z,26.50
2018-12-16T06:19:27.114Z,28.10
2018-12-16T06:20:27.083Z,29.50
2018-12-16T06:21:27.042Z,31.50
2018-12-16T06:22:27.006Z,30.60
2018-12-16T06:23:26.967Z,29.80
2018-12-16T06:24:26.930Z,26.20
2018-12-16T06:25:26.894Z,29.00
2018-12-16T06:26:26.856Z,29.30
2018-12-16T06:27:26.823Z,31.40
2018-12-16T06:28:26.787Z,29.70
2018-12-16T06:29:26.746Z,26.20
2018-12-16T06:30:26.709Z,24.40
2018-12-16T06:31:26.674Z,26.30
2018-12-16T06:32:26.637Z,25.80
2018-12-16T06:33:26.598Z,24.70
2018-12-16T06:34:26.561Z,23.90
2018-12-16T06:35:26.525Z,21.20
2018-12-16T06:36:26.488Z,24.20
2018-12-16T06:37:26.451Z,23.90
2018-12-16T06:38:26.415Z,23.90
2018-12-16T06:39:26.377Z,22.20
2018-12-16T06:40:26.341Z,21.80
2018-12-16T06:41:26.306Z,20.10
2018-12-16T06:42:26.270Z,21.20
2018-12-16T06:43:26.230Z,21.60
2018-12-16T06:44:26.194Z,21.20
2018-12-16T06:45:26.157Z,22.30
2018-12-16T06:46:26.120Z,21.20
2018-12-16T06:47:26.084Z,20.70
2018-12-16T06:48:26.047Z,19.80
2018-12-16T06:49:26.009Z,19.50
2018-12-16T06:50:25.971Z,18.90
2018-12-16T06:51:25.937Z,17.80
2018-12-16T06:52:25.900Z,20.00
2018-12-16T06:53:25.861Z,20.40
2018-12-16T06:54:25.824Z,18.00
2018-12-16T06:55:25.787Z,20.80
2018-12-16T06:56:25.750Z,18.10
2018-12-16T06:57:25.714Z,17.10
2018-12-16T06:58:25.677Z,17.30
2018-12-16T06:59:25.640Z,18.60
2018-12-16T07:00:25.603Z,17.80
2018-12-16T07:01:25.571Z,17.10
2018-12-16T07:02:25.530Z,17.40
2018-12-16T07:03:25.493Z,17.30
2018-12-16T07:04:25.480Z,17.90
2018-12-16T07:05:25.423Z,19.90
2018-12-16T07:06:25.381Z,16.70
2018-12-16T07:07:25.345Z,17.00
2018-12-16T07:08:25.309Z,18.60
2018-12-16T07:09:25.272Z,18.00
2018-12-16T07:10:25.233Z,18.60
2018-12-16T07:11:25.195Z,19.00
2018-12-16T07:12:25.159Z,18.50
2018-12-16T07:13:25.131Z,18.70
2018-12-16T07:14:25.091Z,17.30
2018-12-16T07:15:25.064Z,18.10
2018-12-16T07:16:25.012Z,18.50
2018-12-16T07:17:24.984Z,18.70
2018-12-16T07:18:24.937Z,18.50
2018-12-16T07:19:24.932Z,18.10
2018-12-16T07:20:24.881Z,18.20
2018-12-16T07:21:24.828Z,18.70
2018-12-16T07:22:24.791Z,18.60
2018-12-16T07:23:24.754Z,20.60
2018-12-16T07:24:24.719Z,19.70
2018-12-16T07:25:24.683Z,18.90
2018-12-16T07:26:24.643Z,18.10
2018-12-16T07:27:24.606Z,18.40
2018-12-16T07:28:24.568Z,18.90
2018-12-16T07:29:24.533Z,19.30
2018-12-16T07:30:24.494Z,18.60
2018-12-16T07:31:24.473Z,19.30
2018-12-16T07:32:24.421Z,19.00
2018-12-16T07:33:24.394Z,17.10
2018-12-16T07:34:24.348Z,18.30
2018-12-16T07:35:24.326Z,17.80
2018-12-16T07:36:24.275Z,17.30
2018-12-16T07:37:24.239Z,18.60
2018-12-16T07:38:24.202Z,18.00
2018-12-16T07:39:24.183Z,19.20
2018-12-16T07:40:24.126Z,18.60
2018-12-16T07:41:24.097Z,18.40
2018-12-16T07:42:24.054Z,19.60
2018-12-16T07:43:24.016Z,18.10
2018-12-16T07:44:24.003Z,17.80
2018-12-16T07:45:23.941Z,18.20
2018-12-16T07:46:23.905Z,17.70
2018-12-16T07:47:23.867Z,17.20
2018-12-16T07:48:23.830Z,19.40
2018-12-16T07:49:23.794Z,18.30
2018-12-16T07:50:23.758Z,18.40
2018-12-16T07:51:23.718Z,21.50
2018-12-16T07:52:23.683Z,17.70
2018-12-16T07:53:23.686Z,18.60
2018-12-16T07:54:23.609Z,17.40
2018-12-16T07:55:23.571Z,18.40
2018-12-16T07:56:23.546Z,19.20
2018-12-16T07:57:23.522Z,18.90
2018-12-16T07:58:23.475Z,18.90
2018-12-16T07:59:23.460Z,17.50
2018-12-16T08:00:23.387Z,16.20
2018-12-16T08:01:23.351Z,18.30
2018-12-16T08:02:23.324Z,18.00
2018-12-16T08:03:23.277Z,16.80
2018-12-16T08:04:23.242Z,18.80
2018-12-16T08:05:23.205Z,16.90
2018-12-16T08:06:23.191Z,17.00
2018-12-16T08:07:23.129Z,16.20
2018-12-16T08:08:23.092Z,16.00
2018-12-16T08:09:23.054Z,17.10
2018-12-16T08:10:23.017Z,16.90
2018-12-16T08:11:22.980Z,16.80
2018-12-16T08:12:22.946Z,17.80
2018-12-16T08:13:22.908Z,18.40
2018-12-16T08:14:22.870Z,17.30
2018-12-16T08:15:22.834Z,17.60
2018-12-16T08:16:22.796Z,17.70
2018-12-16T08:17:22.761Z,16.50
2018-12-16T08:18:22.724Z,18.30
2018-12-16T08:19:22.685Z,17.30
2018-12-16T08:20:22.655Z,16.90
2018-12-16T08:21:22.612Z,17.10
2018-12-16T08:22:22.576Z,17.90
2018-12-16T08:23:22.539Z,16.60
2018-12-16T08:24:23.245Z,17.40
2018-12-16T08:25:22.465Z,18.70
2018-12-16T08:26:22.427Z,17.90
2018-12-16T08:27:22.393Z,18.10
2018-12-16T08:28:22.358Z,17.30
2018-12-16T08:29:22.318Z,17.20
2018-12-16T08:30:22.280Z,18.50
2018-12-16T08:31:22.243Z,18.30
2018-12-16T08:32:22.208Z,18.60
2018-12-16T08:33:22.172Z,17.20
2018-12-16T08:34:22.640Z,17.40
2018-12-16T08:35:22.096Z,18.80
2018-12-16T08:36:22.059Z,16.00
2018-12-16T08:37:22.024Z,17.80
2018-12-16T08:38:21.986Z,18.30
2018-12-16T08:39:21.949Z,18.80
2018-12-16T08:40:21.915Z,17.20
2018-12-16T08:41:21.877Z,19.30
2018-12-16T08:42:21.838Z,18.30
2018-12-16T08:43:21.802Z,17.70
2018-12-16T08:44:21.767Z,20.20
2018-12-16T08:45:21.730Z,21.10
2018-12-16T08:46:21.699Z,18.80
2018-12-16T08:47:21.655Z,18.80
2018-12-16T08:48:21.617Z,18.50
2018-12-16T08:49:21.581Z,17.60
2018-12-16T08:50:21.544Z,19.40
2018-12-16T08:51:21.507Z,17.60
2018-12-16T08:52:21.471Z,18.30
2018-12-16T08:53:21.434Z,18.40
2018-12-16T08:54:21.396Z,19.00
2018-12-16T08:55:21.360Z,17.40
2018-12-16T08:56:21.325Z,20.00
2018-12-16T08:57:21.287Z,18.10
2018-12-16T08:58:21.250Z,18.70
2018-12-16T08:59:21.212Z,19.80
2018-12-16T09:00:21.175Z,19.80
2018-12-16T09:01:21.139Z,20.00
2018-12-16T09:02:21.101Z,19.70
2018-12-16T09:03:21.065Z,19.70
2018-12-16T09:04:21.028Z,19.60
2018-12-16T09:05:20.992Z,19.10
2018-12-16T09:06:20.956Z,20.20
2018-12-16T09:07:20.919Z,19.00
2018-12-16T09:08:20.882Z,18.80
2018-12-16T09:09:20.845Z,18.00
2018-12-16T09:10:20.807Z,18.80
2018-12-16T09:11:20.770Z,18.40
2018-12-16T09:12:20.734Z,18.70
2018-12-16T09:13:20.697Z,20.00
2018-12-16T09:14:20.660Z,17.80
2018-12-16T09:15:20.627Z,18.60
2018-12-16T09:16:20.587Z,18.60
2018-12-16T09:17:20.550Z,19.30
2018-12-16T09:18:20.517Z,18.90
2018-12-16T09:19:20.478Z,19.10
2018-12-16T09:20:20.439Z,18.80
2018-12-16T09:21:20.403Z,19.00
2018-12-16T09:22:20.366Z,18.40
2018-12-16T09:23:20.331Z,17.00
2018-12-16T09:24:20.297Z,17.70
2018-12-16T09:25:20.256Z,17.60
2018-12-16T09:26:20.219Z,18.10
2018-12-16T09:27:20.184Z,18.40
2018-12-16T09:28:20.146Z,18.60
2018-12-16T09:29:20.119Z,17.50
2018-12-16T09:30:20.072Z,19.00
2018-12-16T09:31:20.036Z,18.50
2018-12-16T09:32:20.002Z,18.30
2018-12-16T09:33:19.966Z,18.70
2018-12-16T09:34:19.925Z,17.40
2018-12-16T09:35:19.890Z,17.90
2018-12-16T09:36:19.852Z,17.60
2018-12-16T09:37:19.816Z,19.60
2018-12-16T09:38:19.778Z,18.80
2018-12-16T09:39:19.742Z,18.20
2018-12-16T09:40:19.707Z,18.80
2018-12-16T09:41:19.669Z,18.90
2018-12-16T09:42:19.632Z,18.50
2018-12-16T09:43:19.595Z,18.90
2018-12-16T09:44:19.613Z,18.90
2018-12-16T09:45:19.523Z,19.40
2018-12-16T09:46:19.486Z,19.30
2018-12-16T09:47:19.449Z,19.00
2018-12-16T09:48:19.414Z,19.80
2018-12-16T09:49:19.376Z,18.60
2018-12-16T09:50:19.338Z,17.90
2018-12-16T09:51:19.304Z,19.40
2018-12-16T09:52:19.268Z,18.40
2018-12-16T09:53:19.319Z,19.90
2018-12-16T09:54:19.192Z,20.10
2018-12-16T09:55:19.156Z,19.50
2018-12-16T09:56:19.119Z,18.70
2018-12-16T09:57:19.084Z,19.10
2018-12-16T09:58:19.046Z,18.40
2018-12-16T09:59:19.009Z,19.00
2018-12-16T10:00:19.055Z,19.30
2018-12-16T10:01:18.937Z,18.90
2018-12-16T10:02:18.900Z,19.20
2018-12-16T10:03:18.864Z,18.70
2018-12-16T10:04:18.827Z,20.60
2018-12-16T10:05:18.793Z,20.20
2018-12-16T10:06:18.755Z,19.10
2018-12-16T10:07:18.719Z,19.40
2018-12-16T10:08:18.683Z,19.60
2018-12-16T10:09:19.441Z,19.20
2018-12-16T10:10:18.608Z,19.30
2018-12-16T10:11:18.572Z,18.70
2018-12-16T10:12:18.535Z,18.40
2018-12-16T10:13:18.506Z,18.30
2018-12-16T10:14:18.462Z,18.30
2018-12-16T10:15:18.426Z,18.50
2018-12-16T10:16:18.390Z,18.80
2018-12-16T10:17:18.354Z,19.00
2018-12-16T10:18:18.319Z,19.60
2018-12-16T10:19:18.280Z,18.20
2018-12-16T10:20:18.244Z,18.50
2018-12-16T10:21:18.208Z,19.70
2018-12-16T10:22:18.194Z,19.90
2018-12-16T10:23:18.135Z,19.50
2018-12-16T10:24:18.097Z,18.70
2018-12-16T10:25:18.063Z,19.90
2018-12-16T10:26:18.027Z,20.10
2018-12-16T10:27:17.990Z,19.70
2018-12-16T10:28:17.956Z,18.50
2018-12-16T10:29:17.918Z,18.40
2018-12-16T10:30:17.879Z,19.10
2018-12-16T10:31:17.845Z,19.30
2018-12-16T10:32:17.808Z,18.90
2018-12-16T10:33:17.773Z,19.60
2018-12-16T10:34:17.735Z,19.20
2018-12-16T10:35:17.699Z,18.00
2018-12-16T10:36:17.663Z,18.60
2018-12-16T10:37:17.626Z,18.80
2018-12-16T10:38:17.588Z,17.80
2018-12-16T10:39:17.553Z,18.00
2018-12-16T10:40:17.516Z,18.40
2018-12-16T10:41:17.481Z,18.30
2018-12-16T10:42:17.445Z,19.20
2018-12-16T10:43:17.409Z,18.70
2018-12-16T10:44:17.371Z,20.00
2018-12-16T10:45:17.335Z,18.20
2018-12-16T10:46:17.297Z,19.30
2018-12-16T10:47:17.262Z,19.20
2018-12-16T10:48:17.229Z,18.80
2018-12-16T10:49:17.189Z,20.00
2018-12-16T10:50:17.152Z,20.00
2018-12-16T10:51:17.116Z,18.90
2018-12-16T10:52:17.080Z,18.80
2018-12-16T10:53:17.044Z,20.00
2018-12-16T10:54:17.007Z,19.70
2018-12-16T10:55:16.970Z,18.60
2018-12-16T10:56:16.934Z,20.10
2018-12-16T10:57:16.898Z,17.60
2018-12-16T10:58:16.860Z,17.70
2018-12-16T10:59:16.827Z,19.80
2018-12-16T11:00:16.788Z,18.80
2018-12-16T11:01:16.752Z,18.40
2018-12-16T11:02:16.715Z,19.80
2018-12-16T11:03:16.682Z,19.10
2018-12-16T11:04:16.643Z,18.80
2018-12-16T11:05:16.608Z,19.60
2018-12-16T11:06:16.572Z,20.20
2018-12-16T11:07:16.536Z,20.70
2018-12-16T11:08:16.499Z,19.30
2018-12-16T11:09:16.465Z,19.50
2018-12-16T11:10:16.428Z,18.80
2018-12-16T11:11:16.391Z,18.50
2018-12-16T11:12:16.354Z,19.20
2018-12-16T11:13:16.318Z,19.90
2018-12-16T11:14:16.281Z,20.00
2018-12-16T11:15:16.245Z,19.80
2018-12-16T11:16:16.208Z,19.90
2018-12-16T11:17:16.173Z,20.70
2018-12-16T11:18:16.135Z,19.30
2018-12-16T11:19:16.099Z,16.80
2018-12-16T11:20:16.066Z,18.80
2018-12-16T11:21:16.028Z,20.30
2018-12-16T11:22:15.992Z,20.00
2018-12-16T11:23:15.955Z,19.30
2018-12-16T11:24:15.920Z,19.40
2018-12-16T11:25:15.883Z,19.00
2018-12-16T11:26:15.848Z,19.10
2018-12-16T11:27:15.811Z,19.80
2018-12-16T11:28:15.793Z,18.80
2018-12-16T11:29:15.739Z,19.80
2018-12-16T11:30:15.737Z,18.30
2018-12-16T11:31:15.666Z,20.50
2018-12-16T11:32:15.629Z,19.90
2018-12-16T11:33:15.596Z,20.20
2018-12-16T11:34:15.567Z,20.80
2018-12-16T11:35:15.524Z,19.90
2018-12-16T11:36:15.485Z,20.10
2018-12-16T11:37:15.450Z,19.30
2018-12-16T11:38:15.413Z,20.30
2018-12-16T11:39:15.378Z,20.30
2018-12-16T11:40:15.340Z,19.70
2018-12-16T11:41:15.305Z,19.70
2018-12-16T11:42:15.268Z,19.50
2018-12-16T11:43:15.233Z,19.60
2018-12-16T11:44:15.208Z,20.90
2018-12-16T11:45:15.159Z,19.80
2018-12-16T11:46:15.122Z,19.50
2018-12-16T11:47:15.088Z,19.30
2018-12-16T11:48:15.051Z,18.80
2018-12-16T11:49:15.015Z,18.40
2018-12-16T11:50:14.979Z,19.90
2018-12-16T11:51:14.969Z,19.60
2018-12-16T11:52:14.907Z,19.80
2018-12-16T11:53:14.871Z,19.70
2018-12-16T11:54:14.843Z,18.70
2018-12-16T11:55:14.798Z,20.30
2018-12-16T11:56:14.763Z,18.10
2018-12-16T11:57:14.730Z,20.50
2018-12-16T11:58:14.690Z,21.30
2018-12-16T11:59:14.657Z,19.00
2018-12-16T12:00:14.619Z,18.90
2018-12-16T12:01:14.583Z,18.70
2018-12-16T12:02:14.546Z,18.70
2018-12-16T12:03:14.514Z,19.50
2018-12-16T12:04:14.474Z,19.20
2018-12-16T12:05:14.440Z,20.00
2018-12-16T12:06:14.403Z,20.10
2018-12-16T12:07:14.365Z,20.40
2018-12-16T12:08:14.331Z,19.20
2018-12-16T12:09:14.295Z,19.70
2018-12-16T12:10:14.260Z,19.40
2018-12-16T12:11:14.222Z,19.90
2018-12-16T12:12:14.188Z,21.30
2018-12-16T12:13:14.150Z,19.80
2018-12-16T12:14:14.114Z,21.00
2018-12-16T12:15:14.077Z,18.70
2018-12-16T12:16:14.043Z,20.40
2018-12-16T12:17:14.008Z,19.20
2018-12-16T12:18:13.968Z,18.00
2018-12-16T12:19:13.934Z,19.40
2018-12-16T12:20:13.898Z,19.20
2018-12-16T12:21:13.862Z,18.00
2018-12-16T12:22:13.826Z,19.80
2018-12-16T12:23:13.794Z,19.80
2018-12-16T12:24:13.756Z,21.10
2018-12-16T12:25:19.642Z,18.80
2018-12-16T12:26:13.682Z,19.00
2018-12-16T12:27:13.646Z,18.50
2018-12-16T12:28:13.612Z,20.90
2018-12-16T12:29:13.576Z,20.10
2018-12-16T12:30:13.539Z,20.00
2018-12-16T12:31:13.502Z,18.70
2018-12-16T12:32:13.468Z,20.60
2018-12-16T12:33:13.433Z,20.00
2018-12-16T12:34:13.397Z,20.20
2018-12-16T12:35:13.360Z,20.40
2018-12-16T12:36:13.324Z,19.50
2018-12-16T12:37:13.288Z,19.30
2018-12-16T12:38:13.252Z,20.40
2018-12-16T12:39:13.215Z,20.10
2018-12-16T12:40:13.181Z,19.40
2018-12-16T12:41:13.144Z,20.70
2018-12-16T12:42:13.107Z,19.40
2018-12-16T12:43:13.072Z,20.10
2018-12-16T12:44:13.037Z,20.50
2018-12-16T12:45:13.002Z,19.40
2018-12-16T12:46:13.013Z,19.50
2018-12-16T12:47:12.931Z,20.20
2018-12-16T12:48:12.893Z,20.60
2018-12-16T12:49:12.856Z,19.30
2018-12-16T12:50:12.820Z,19.50
2018-12-16T12:51:12.784Z,19.90
2018-12-16T12:52:12.750Z,20.80